CST,Max TemperatureF,Mean TemperatureF,Min TemperatureF,Max Dew PointF,MeanDew PointF,Min DewpointF,Max Humidity, Mean Humidity, Min Humidity, Max Sea Level PressureIn, Mean Sea Level PressureIn, Min Sea Level PressureIn, Max VisibilityMiles, Mean VisibilityMiles, Min VisibilityMiles, Max Wind SpeedMPH, Mean Wind SpeedMPH, Max Gust SpeedMPH,PrecipitationIn, CloudCover, Events, WindDirDegrees
2011-11-1,72,58,43,45,40,37,86,58,29,30.27,30.22,30.19,10,10,10,17,5,21,0.00,1,,88
2011-11-2,74,61,47,55,49,42,87,67,46,30.28,30.21,30.15,10,10,10,14,7,28,0.00,1,,107
2011-11-3,75,60,44,66,56,39,93,81,68,30.15,30.05,29.96,10,8,3,20,9,28,0.05,5,Rain,268
2011-11-4,63,52,41,45,42,37,93,72,51,30.14,30.09,30.05,10,10,10,21,9,28,0.00,1,,335
2011-11-5,73,59,45,46,42,36,93,61,28,30.19,30.15,30.11,10,10,8,22,7,25,0.00,0,,61
2011-11-6,74,62,50,55,47,38,80,65,49,30.28,30.22,30.17,10,10,10,16,9,21,0.00,2,,81
2011-11-7,77,67,56,59,56,53,93,72,50,30.27,30.21,30.12,10,10,10,18,8,44,0.00,1,,103
2011-11-8,79,69,58,63,61,58,97,76,54,30.16,30.10,30.06,10,10,10,20,9,24,0.00,4,,120
2011-11-9,78,65,52,64,58,47,93,76,58,30.11,30.05,29.99,10,8,2,18,8,30,0.18,5,Rain,341
2011-11-10,61,51,40,45,34,28,83,58,32,30.25,30.18,30.11,10,10,10,26,13,36,0.00,4,,340
2011-11-11,66,49,31,37,31,25,89,56,22,30.32,30.26,30.22,10,10,10,10,3,14,0.00,0,,327
2011-11-12,68,51,34,50,42,33,92,67,42,30.32,30.24,30.17,10,10,10,12,3,16,0.00,3,,127
2011-11-13,78,65,52,66,58,48,93,72,50,30.16,30.11,30.06,10,10,7,18,7,29,0.01,6,Rain,158
2011-11-14,73,70,67,70,67,64,100,92,84,30.09,30.03,29.98,10,5,1,16,7,21,0.74,8,Rain,183
2011-11-15,81,75,68,72,69,66,100,85,69,29.99,29.93,29.87,10,8,1,21,8,28,0.05,8,Rain,165
2011-11-16,82,74,65,72,68,63,100,77,54,29.98,29.87,29.82,10,8,1,25,11,32,0.04,6,Rain-Thunderstorm,209
2011-11-17,65,53,41,63,43,28,93,60,27,30.32,30.18,29.99,10,10,10,22,13,29,0.00,3,,349
2011-11-18,62,49,36,48,37,27,83,63,43,30.34,30.27,30.19,10,10,10,14,6,18,0.00,2,,74
2011-11-19,72,63,54,65,57,48,93,81,68,30.23,30.18,30.13,10,10,6,14,8,18,0.00,7,,87
2011-11-20,79,71,62,68,66,61,100,84,67,30.27,30.22,30.17,10,5,0,13,6,29,0.00,5,Fog,120
2011-11-21,80,74,67,68,67,66,100,84,67,30.28,30.19,30.09,10,5,0,15,6,29,0.00,7,Fog,124
2011-11-22,80,73,65,72,69,63,100,87,74,30.09,30.04,29.98,10,7,2,22,8,28,0.50,7,Rain,186
2011-11-23,69,60,51,64,55,46,100,76,52,30.25,30.13,30.04,10,10,8,20,10,24,0.00,4,,355
2011-11-24,69,58,46,48,45,42,93,66,39,30.33,30.28,30.22,10,10,8,15,6,20,0.00,0,,40
2011-11-25,74,60,46,57,51,40,86,72,57,30.27,30.21,30.14,10,10,10,18,8,23,0.00,2,,106
2011-11-26,79,68,57,66,60,53,93,74,54,30.14,30.06,29.96,10,9,5,28,13,35,0.25,6,Rain,129
2011-11-27,70,58,46,67,58,42,100,92,84,29.98,29.94,29.88,10,6,2,17,8,25,1.03,8,Rain,297
2011-11-28,49,44,38,41,38,34,92,79,66,30.02,29.97,29.93,10,8,5,16,8,23,0.04,8,Rain,271
2011-11-29,57,45,33,38,34,30,89,68,46,30.15,30.03,29.96,10,10,10,16,7,23,0.00,1,,314
2011-11-30,56,44,32,36,32,28,100,69,38,30.22,30.18,30.13,10,10,6,15,5,18,0.00,1,,329